createdAt,value
2019-03-15T00:01:28.078Z,0.97
2019-03-15T00:03:57.938Z,1.30
2019-03-15T00:06:28.577Z,1.10
2019-03-15T00:08:58.819Z,1.33
2019-03-15T00:11:29.336Z,1.30
2019-03-15T00:13:59.511Z,1.30
2019-03-15T00:16:29.292Z,1.50
2019-03-15T00:19:01.446Z,1.23
2019-03-15T00:21:56.688Z,1.30
2019-03-15T00:24:26.496Z,1.50
2019-03-15T00:26:57.488Z,1.30
2019-03-15T00:29:26.777Z,1.33
2019-03-15T00:31:56.155Z,1.70
2019-03-15T00:34:27.926Z,1.30
2019-03-15T00:36:57.566Z,1.40
2019-03-15T00:39:28.006Z,1.47
2019-03-15T00:41:57.084Z,1.63
2019-03-15T00:44:26.566Z,1.63
2019-03-15T00:46:56.187Z,1.90
2019-03-15T00:49:25.543Z,1.53
2019-03-15T00:51:55.381Z,1.57
2019-03-15T00:54:24.650Z,1.70
2019-03-15T00:56:54.415Z,1.70
2019-03-15T00:59:23.947Z,1.73
2019-03-15T01:01:54.005Z,1.98
2019-03-15T01:04:23.324Z,1.90
2019-03-15T01:06:52.664Z,1.50
2019-03-15T01:09:22.530Z,1.70
2019-03-15T01:11:52.170Z,1.33
2019-03-15T01:14:21.732Z,1.60
2019-03-15T01:16:51.453Z,1.60
2019-03-15T01:19:21.232Z,1.50
2019-03-15T01:21:50.558Z,1.77
2019-03-15T01:24:20.044Z,2.00
2019-03-15T01:26:49.228Z,1.60
2019-03-15T01:29:18.315Z,1.70
2019-03-15T01:31:48.000Z,1.60
2019-03-15T01:34:17.315Z,1.42
2019-03-15T01:36:46.927Z,1.23
2019-03-15T01:39:16.294Z,1.47
2019-03-15T01:41:46.412Z,1.43
2019-03-15T01:44:15.706Z,1.33
2019-03-15T01:46:46.169Z,1.20
2019-03-15T01:49:15.966Z,1.20
2019-03-15T01:51:45.595Z,1.60
2019-03-15T01:54:15.052Z,1.27
2019-03-15T01:56:44.807Z,1.40
2019-03-15T01:59:13.882Z,1.33
2019-03-15T02:01:43.600Z,1.47
2019-03-15T02:04:13.125Z,1.10
2019-03-15T02:06:42.014Z,1.50
2019-03-15T02:09:13.319Z,1.50
2019-03-15T02:11:43.570Z,1.63
2019-03-15T02:14:12.539Z,1.67
2019-03-15T02:16:41.802Z,1.90
2019-03-15T02:19:10.998Z,1.93
2019-03-15T02:21:40.517Z,2.00
2019-03-15T02:24:10.453Z,2.00
2019-03-15T02:26:40.762Z,2.40
2019-03-15T02:29:10.816Z,2.10
2019-03-15T02:31:40.585Z,2.20
2019-03-15T02:34:12.647Z,2.03
2019-03-15T02:36:42.759Z,2.33
2019-03-15T02:39:12.306Z,2.20
2019-03-15T02:41:42.942Z,2.40
2019-03-15T02:44:12.674Z,2.13
2019-03-15T02:46:42.462Z,2.07
2019-03-15T02:49:11.826Z,2.33
2019-03-15T02:51:41.697Z,2.17
2019-03-15T02:54:11.406Z,2.40
2019-03-15T02:56:43.159Z,2.17
2019-03-15T02:59:15.067Z,2.10
2019-03-15T03:01:44.454Z,2.00
2019-03-15T03:04:14.892Z,2.00
2019-03-15T03:06:46.165Z,2.17
2019-03-15T03:09:15.357Z,2.47
2019-03-15T03:11:45.215Z,2.00
2019-03-15T03:14:15.575Z,2.70
2019-03-15T03:16:46.268Z,2.43
2019-03-15T03:19:15.930Z,1.93
2019-03-15T03:21:46.274Z,2.37
2019-03-15T03:24:15.564Z,1.80
2019-03-15T03:26:45.983Z,2.00
2019-03-15T03:29:16.338Z,1.97
2019-03-15T03:31:46.794Z,1.83
2019-03-15T03:34:16.240Z,1.90
2019-03-15T03:36:45.667Z,2.00
2019-03-15T03:39:16.376Z,1.90
2019-03-15T03:41:46.380Z,1.83
2019-03-15T03:44:16.143Z,2.90
2019-03-15T03:46:45.597Z,2.20
2019-03-15T03:49:15.125Z,1.80
2019-03-15T03:51:44.794Z,1.80
2019-03-15T03:54:14.290Z,1.67
2019-03-15T03:56:43.507Z,2.20
2019-03-15T03:59:13.206Z,1.97
2019-03-15T04:01:42.316Z,2.00
2019-03-15T04:04:12.029Z,2.03
2019-03-15T04:06:41.818Z,1.97
2019-03-15T04:09:11.209Z,1.90
2019-03-15T04:11:54.241Z,1.80
2019-03-15T04:14:12.029Z,1.67
2019-03-15T04:16:41.597Z,1.90
2019-03-15T04:19:11.007Z,1.80
2019-03-15T04:21:41.419Z,1.47
2019-03-15T04:24:10.759Z,1.83
2019-03-15T04:26:41.107Z,1.83
2019-03-15T04:29:10.528Z,1.63
2019-03-15T04:31:39.826Z,1.73
2019-03-15T04:34:09.813Z,1.40
2019-03-15T04:36:38.900Z,1.97
2019-03-15T04:39:08.750Z,1.80
2019-03-15T04:41:41.272Z,1.90
2019-03-15T04:44:10.537Z,1.50
2019-03-15T04:46:40.327Z,1.57
2019-03-15T04:49:09.490Z,1.50
2019-03-15T04:51:39.424Z,1.80
2019-03-15T04:54:08.844Z,1.93
2019-03-15T04:56:38.166Z,1.57
2019-03-15T04:59:07.419Z,1.67
2019-03-15T05:01:37.249Z,1.40
2019-03-15T05:04:07.085Z,1.60
2019-03-15T05:06:37.033Z,1.73
2019-03-15T05:09:07.478Z,1.47
2019-03-15T05:11:43.397Z,1.53
2019-03-15T05:14:13.131Z,3.03
2019-03-15T05:16:46.562Z,1.70
2019-03-15T05:19:16.743Z,1.50
2019-03-15T05:21:46.982Z,2.20
2019-03-15T05:24:16.240Z,1.70
2019-03-15T05:26:47.482Z,2.00
2019-03-15T05:29:17.267Z,1.53
2019-03-15T05:31:49.392Z,1.50
2019-03-15T05:34:19.641Z,1.80
2019-03-15T05:36:48.888Z,1.73
2019-03-15T05:39:18.305Z,1.93
2019-03-15T05:41:47.785Z,1.47
2019-03-15T05:44:17.718Z,2.40
2019-03-15T05:46:47.483Z,1.60
2019-03-15T05:49:18.768Z,1.53
2019-03-15T05:51:48.643Z,1.83
2019-03-15T05:54:18.827Z,1.90
2019-03-15T05:56:52.011Z,2.10
2019-03-15T05:59:22.608Z,2.07
2019-03-15T06:03:13.758Z,1.90
2019-03-15T06:05:43.537Z,2.70
2019-03-15T06:08:58.569Z,2.33
2019-03-15T06:11:54.519Z,2.40
2019-03-15T06:15:43.601Z,2.20
2019-03-15T06:18:23.418Z,2.70
2019-03-15T06:20:55.378Z,2.27
2019-03-15T06:23:25.987Z,2.67
2019-03-15T06:26:02.094Z,2.27
2019-03-15T06:28:35.968Z,3.10
2019-03-15T06:31:06.889Z,2.47
2019-03-15T06:33:53.229Z,2.73
2019-03-15T06:36:27.237Z,2.50
2019-03-15T06:38:56.405Z,2.40
2019-03-15T06:41:25.901Z,3.47
2019-03-15T06:43:55.528Z,3.00
2019-03-15T06:46:25.534Z,2.40
2019-03-15T06:48:55.326Z,2.50
2019-03-15T06:51:25.274Z,2.57
2019-03-15T06:53:54.597Z,2.80
2019-03-15T06:56:28.835Z,2.80
2019-03-15T06:58:58.685Z,3.00
2019-03-15T07:01:28.485Z,2.90
2019-03-15T07:03:58.232Z,3.10
2019-03-15T07:06:27.795Z,2.93
2019-03-15T07:08:57.966Z,3.30
2019-03-15T07:11:28.702Z,3.33
2019-03-15T07:13:58.108Z,2.60
2019-03-15T07:16:27.652Z,2.60
2019-03-15T07:19:05.174Z,2.60
2019-03-15T07:21:36.824Z,3.77
2019-03-15T07:24:06.547Z,2.23
2019-03-15T07:26:36.369Z,3.17
2019-03-15T07:29:06.695Z,2.33
2019-03-15T07:31:36.517Z,2.40
2019-03-15T07:34:07.148Z,2.27
2019-03-15T07:36:37.343Z,2.60
2019-03-15T07:39:07.472Z,1.40
2019-03-15T07:41:37.695Z,2.63
2019-03-15T07:44:07.652Z,1.43
2019-03-15T07:46:37.039Z,1.10
2019-03-15T07:49:06.127Z,1.57
2019-03-15T07:51:35.481Z,1.70
2019-03-15T07:54:06.265Z,1.67
2019-03-15T07:56:35.584Z,1.60
2019-03-15T07:59:05.045Z,1.27
2019-03-15T08:01:34.250Z,1.40
2019-03-15T08:04:16.278Z,1.40
2019-03-15T08:06:36.354Z,1.30
2019-03-15T08:09:07.915Z,1.60
2019-03-15T08:11:37.505Z,1.23
2019-03-15T08:14:06.913Z,1.43
2019-03-15T08:16:35.935Z,1.50
2019-03-15T08:19:05.534Z,1.47
2019-03-15T08:21:35.163Z,1.30
2019-03-15T08:24:04.714Z,1.40
2019-03-15T08:26:34.435Z,1.23
2019-03-15T08:29:03.774Z,1.20
2019-03-15T08:31:33.233Z,1.20
2019-03-15T08:34:04.642Z,1.10
2019-03-15T08:36:34.554Z,1.50
2019-03-15T08:39:05.987Z,1.20
2019-03-15T08:41:35.665Z,0.80
2019-03-15T08:44:05.326Z,0.93
2019-03-15T08:46:35.174Z,0.90
2019-03-15T08:49:04.335Z,0.70
2019-03-15T08:51:34.341Z,0.90
2019-03-15T08:54:03.694Z,0.80
2019-03-15T08:56:32.792Z,0.90
2019-03-15T08:59:02.220Z,0.90
2019-03-15T09:01:31.888Z,1.00
2019-03-15T09:04:01.681Z,0.90
2019-03-15T09:06:31.522Z,0.50
2019-03-15T09:09:09.484Z,0.63
2019-03-15T09:11:41.199Z,0.50
2019-03-15T09:14:10.536Z,0.80
2019-03-15T09:16:39.994Z,0.77
2019-03-15T09:19:09.592Z,0.90
2019-03-15T09:21:39.090Z,0.80
2019-03-15T09:24:08.829Z,0.80
2019-03-15T09:26:38.157Z,1.10
2019-03-15T09:29:07.434Z,0.60
2019-03-15T09:31:47.153Z,0.50
2019-03-15T09:34:08.679Z,0.60
2019-03-15T09:36:49.861Z,0.50
2019-03-15T09:39:11.659Z,0.40
2019-03-15T09:41:40.809Z,0.60
2019-03-15T09:44:10.563Z,0.40
2019-03-15T09:46:40.696Z,0.43
2019-03-15T09:49:12.228Z,0.50
2019-03-15T09:51:41.618Z,0.70
2019-03-15T09:54:12.390Z,0.47
2019-03-15T09:56:42.159Z,0.40
2019-03-15T09:59:12.462Z,0.30
2019-03-15T10:01:42.531Z,0.50
2019-03-15T10:04:17.133Z,0.50
2019-03-15T10:06:45.993Z,0.60
2019-03-15T10:09:20.253Z,0.50
2019-03-15T10:11:50.696Z,0.43
2019-03-15T10:14:25.424Z,0.53
2019-03-15T10:16:55.824Z,0.97
2019-03-15T10:19:25.917Z,0.50
2019-03-15T10:21:55.606Z,0.47
2019-03-15T10:24:26.168Z,0.53
2019-03-15T10:26:56.192Z,0.63
2019-03-15T10:29:25.861Z,0.57
2019-03-15T10:31:55.398Z,0.50
2019-03-15T10:34:24.970Z,0.67
2019-03-15T10:36:54.392Z,0.63
2019-03-15T10:39:24.438Z,0.60
2019-03-15T10:41:54.403Z,0.33
2019-03-15T10:44:23.963Z,0.53
2019-03-15T10:47:02.532Z,1.10
2019-03-15T10:49:30.983Z,0.50
2019-03-15T10:52:01.386Z,0.60
2019-03-15T10:54:31.812Z,0.57
2019-03-15T10:57:01.759Z,0.50
2019-03-15T10:59:33.929Z,0.47
2019-03-15T11:02:04.535Z,0.43
2019-03-15T11:04:34.142Z,0.60
2019-03-15T11:07:03.811Z,0.30
2019-03-15T11:09:33.641Z,0.60
2019-03-15T11:12:03.065Z,0.50
2019-03-15T11:14:32.528Z,0.23
2019-03-15T11:17:01.620Z,0.40
2019-03-15T11:19:31.306Z,0.33
2019-03-15T11:22:00.883Z,0.30
2019-03-15T11:24:30.247Z,0.40
2019-03-15T11:26:59.843Z,0.50
2019-03-15T11:29:29.343Z,0.80
2019-03-15T11:31:58.531Z,0.80
2019-03-15T11:34:28.211Z,0.70
2019-03-15T11:36:58.474Z,0.53
2019-03-15T11:39:28.079Z,0.40
2019-03-15T11:41:58.201Z,0.70
2019-03-15T11:44:27.804Z,0.93
2019-03-15T11:46:57.028Z,0.60
2019-03-15T11:49:28.224Z,0.40
2019-03-15T11:51:58.180Z,0.60
2019-03-15T11:54:27.711Z,0.70
2019-03-15T11:56:57.219Z,0.50
2019-03-15T11:59:27.009Z,0.75
2019-03-15T12:02:03.971Z,0.80
2019-03-15T12:04:28.240Z,0.50
2019-03-15T12:06:57.575Z,0.60
2019-03-15T12:09:27.280Z,0.83
2019-03-15T12:11:58.026Z,0.77
2019-03-15T12:14:40.174Z,0.87
2019-03-15T12:17:00.132Z,0.53
2019-03-15T12:19:30.000Z,0.77
2019-03-15T12:22:06.176Z,0.73
2019-03-15T12:24:30.916Z,0.60
2019-03-15T12:27:04.435Z,0.63
2019-03-15T12:29:34.063Z,0.57
2019-03-15T12:32:03.222Z,0.50
2019-03-15T12:34:34.988Z,0.50
2019-03-15T12:37:04.442Z,0.50
2019-03-15T12:39:34.246Z,0.90
2019-03-15T12:42:03.979Z,0.70
2019-03-15T12:44:33.306Z,0.30
2019-03-15T12:47:05.982Z,0.57
2019-03-15T12:49:35.156Z,0.60
2019-03-15T12:52:04.923Z,0.50
2019-03-15T12:54:34.373Z,1.43
2019-03-15T12:57:04.326Z,0.60
2019-03-15T12:59:33.821Z,0.70
2019-03-15T13:02:03.377Z,0.50
2019-03-15T13:04:33.510Z,0.77
2019-03-15T13:07:03.397Z,0.40
2019-03-15T13:09:35.731Z,0.60
2019-03-15T13:12:07.443Z,0.60
2019-03-15T13:14:37.415Z,0.50
2019-03-15T13:17:10.800Z,0.33
2019-03-15T13:22:44.926Z,0.40
2019-03-15T13:25:15.699Z,0.43
2019-03-15T13:27:45.289Z,0.70
2019-03-15T13:30:22.308Z,0.67
2019-03-15T13:32:55.159Z,0.43
2019-03-15T13:35:27.456Z,0.60
2019-03-15T13:37:57.221Z,0.27
2019-03-15T13:40:29.934Z,0.40
2019-03-15T13:43:00.194Z,0.40
2019-03-15T13:45:29.492Z,0.40
2019-03-15T13:48:01.651Z,0.40
2019-03-15T13:50:33.847Z,0.70
2019-03-15T13:53:05.885Z,0.30
2019-03-15T13:55:35.284Z,0.53
2019-03-15T13:58:13.224Z,0.53
2019-03-15T14:00:44.348Z,0.47
2019-03-15T14:03:13.829Z,0.70
2019-03-15T14:05:43.378Z,0.60
2019-03-15T14:08:13.021Z,0.43
2019-03-15T14:10:49.197Z,0.47
2019-03-15T14:13:13.640Z,0.30
2019-03-15T14:15:44.128Z,0.63
2019-03-15T14:18:14.196Z,0.67
2019-03-15T14:20:43.779Z,0.50
2019-03-15T14:23:14.614Z,0.77
2019-03-15T14:25:44.309Z,0.30
2019-03-15T14:28:17.631Z,0.67
2019-03-15T14:30:47.020Z,0.40
2019-03-15T14:33:16.452Z,0.43
2019-03-15T14:35:45.852Z,0.50
2019-03-15T14:38:15.788Z,0.47
2019-03-15T14:40:45.251Z,0.80
2019-03-15T14:43:14.923Z,0.50
2019-03-15T14:45:45.584Z,0.57
2019-03-15T14:48:26.394Z,0.47
2019-03-15T14:50:57.970Z,0.50
2019-03-15T14:53:28.555Z,0.83
2019-03-15T14:55:59.231Z,0.67
2019-03-15T14:58:29.418Z,0.70
2019-03-15T15:00:59.240Z,0.60
2019-03-15T15:03:29.350Z,0.43
2019-03-15T15:06:02.992Z,0.60
2019-03-15T15:08:32.966Z,0.53
2019-03-15T15:11:03.455Z,0.70
2019-03-15T15:13:33.272Z,0.50
2019-03-15T15:16:04.856Z,0.80
2019-03-15T15:18:35.176Z,0.83
2019-03-15T15:21:04.767Z,0.60
2019-03-15T15:23:34.831Z,0.50
2019-03-15T15:26:04.695Z,0.90
2019-03-15T15:28:34.264Z,0.80
2019-03-15T15:31:04.052Z,0.93
2019-03-15T15:33:33.920Z,0.70
2019-03-15T15:36:04.218Z,2.10
2019-03-15T15:38:37.992Z,0.50
2019-03-15T15:41:07.463Z,0.60
2019-03-15T15:43:37.531Z,5.53
2019-03-15T15:46:07.063Z,0.77
2019-03-15T15:48:37.876Z,0.50
2019-03-15T15:51:07.370Z,0.50
2019-03-15T15:53:37.227Z,0.60
2019-03-15T15:56:06.984Z,0.70
2019-03-15T15:58:38.171Z,0.80
2019-03-15T16:01:08.122Z,2.20
2019-03-15T16:03:39.949Z,0.60
2019-03-15T16:06:09.579Z,0.47
2019-03-15T16:08:39.094Z,0.60
2019-03-15T16:11:08.615Z,0.60
2019-03-15T16:13:37.756Z,0.50
2019-03-15T16:16:08.613Z,0.77
2019-03-15T16:18:37.992Z,0.73
2019-03-15T16:21:08.739Z,0.63
2019-03-15T16:23:39.893Z,0.60
2019-03-15T16:26:10.445Z,0.77
2019-03-15T16:28:43.402Z,0.60
2019-03-15T16:31:13.086Z,0.67
2019-03-15T16:33:43.804Z,0.63
2019-03-15T16:36:13.333Z,0.83
2019-03-15T16:38:42.598Z,0.50
2019-03-15T16:41:11.738Z,0.60
2019-03-15T16:43:43.423Z,0.90
2019-03-15T16:46:22.094Z,0.50
2019-03-15T16:48:53.660Z,0.70
2019-03-15T16:51:23.539Z,0.70
2019-03-15T16:53:53.016Z,0.60
2019-03-15T16:56:22.832Z,0.60
2019-03-15T16:58:52.607Z,0.87
2019-03-15T17:01:22.423Z,0.73
2019-03-15T17:03:52.627Z,0.90
2019-03-15T17:06:22.157Z,0.77
2019-03-15T17:08:54.228Z,0.90
2019-03-15T17:11:24.523Z,1.30
2019-03-15T17:13:54.659Z,0.90
2019-03-15T17:16:24.467Z,1.27
2019-03-15T17:18:53.554Z,0.60
2019-03-15T17:21:25.002Z,0.73
2019-03-15T17:23:54.991Z,0.70
2019-03-15T17:26:26.135Z,0.80
2019-03-15T17:29:00.655Z,1.03
2019-03-15T17:31:31.223Z,0.90
2019-03-15T17:34:02.141Z,0.90
2019-03-15T17:36:32.269Z,1.90
2019-03-15T17:39:04.744Z,1.05
2019-03-15T17:41:37.165Z,1.00
2019-03-15T17:44:06.666Z,0.80
2019-03-15T17:46:39.198Z,1.75
2019-03-15T17:49:15.637Z,1.07
2019-03-15T17:51:45.720Z,0.90
2019-03-15T17:54:15.131Z,1.00
2019-03-15T17:56:47.272Z,1.02
2019-03-15T17:59:16.537Z,0.70
2019-03-15T18:01:46.360Z,0.80
2019-03-15T18:04:19.561Z,1.00
2019-03-15T18:06:51.221Z,0.70
2019-03-15T18:09:23.360Z,0.87
2019-03-15T18:11:55.163Z,1.00
2019-03-15T18:14:24.759Z,1.13
2019-03-15T18:16:56.230Z,0.90
2019-03-15T18:19:26.834Z,0.90
2019-03-15T18:21:56.509Z,1.07
2019-03-15T18:24:25.839Z,1.30
2019-03-15T18:26:57.730Z,0.80
2019-03-15T18:29:28.759Z,1.00
2019-03-15T18:31:58.816Z,0.90
2019-03-15T18:34:28.238Z,0.90
2019-03-15T18:36:59.603Z,0.93
2019-03-15T18:39:29.166Z,0.98
2019-03-15T18:41:58.403Z,0.88
2019-03-15T18:44:27.583Z,0.95
2019-03-15T18:46:59.560Z,0.90
2019-03-15T18:49:28.945Z,1.00
2019-03-15T18:52:00.334Z,1.00
2019-03-15T18:54:30.030Z,0.77
2019-03-15T18:57:01.007Z,1.20
2019-03-15T18:59:39.696Z,0.87
2019-03-15T19:02:05.402Z,0.90
2019-03-15T19:04:35.472Z,1.10
2019-03-15T19:07:05.321Z,1.20
2019-03-15T19:09:36.675Z,1.23
2019-03-15T19:12:09.790Z,1.10
2019-03-15T19:14:40.919Z,0.80
2019-03-15T19:17:12.325Z,1.00
2019-03-15T19:19:43.052Z,0.77
2019-03-15T19:22:14.244Z,0.90
2019-03-15T19:24:44.701Z,0.93
2019-03-15T19:27:18.670Z,0.80
2019-03-15T19:29:55.955Z,0.60
2019-03-15T19:32:26.857Z,0.60
2019-03-15T19:34:57.728Z,0.90
2019-03-15T19:37:33.919Z,0.90
2019-03-15T19:40:28.315Z,0.70
2019-03-15T19:42:58.819Z,0.70
2019-03-15T19:45:29.642Z,0.90
2019-03-15T19:48:02.596Z,0.70
2019-03-15T19:50:36.445Z,0.50
2019-03-15T19:53:07.432Z,0.80
2019-03-15T19:55:40.587Z,0.60
2019-03-15T19:58:14.815Z,0.80
2019-03-15T20:00:46.101Z,0.60
2019-03-15T20:03:18.103Z,0.70
2019-03-15T20:05:49.558Z,0.60
2019-03-15T20:08:22.728Z,0.70
2019-03-15T20:10:56.048Z,0.70
2019-03-15T20:13:26.552Z,1.07
2019-03-15T20:15:57.525Z,0.77
2019-03-15T20:18:27.315Z,0.60
2019-03-15T20:20:56.783Z,0.80
2019-03-15T20:23:27.313Z,0.63
2019-03-15T20:25:57.391Z,1.10
2019-03-15T20:28:27.035Z,1.47
2019-03-15T20:30:56.610Z,0.77
2019-03-15T20:33:26.584Z,0.47
2019-03-15T20:35:56.873Z,0.50
2019-03-15T20:38:27.742Z,0.60
2019-03-15T20:40:58.094Z,0.70
2019-03-15T20:43:27.741Z,0.60
2019-03-15T20:46:01.061Z,0.57
2019-03-15T20:48:31.018Z,0.60
2019-03-15T20:51:01.388Z,0.70
2019-03-15T20:53:30.967Z,0.80
2019-03-15T20:56:00.949Z,0.60
2019-03-15T20:58:30.923Z,0.70
2019-03-15T21:01:01.650Z,0.70
2019-03-15T21:03:31.575Z,0.70
2019-03-15T21:06:03.871Z,1.00
2019-03-15T21:08:35.234Z,0.60
2019-03-15T21:11:04.747Z,0.50
2019-03-15T21:13:35.380Z,0.67
2019-03-15T21:16:07.488Z,1.10
2019-03-15T21:18:37.437Z,0.50
2019-03-15T21:21:07.150Z,0.60
2019-03-15T21:23:36.574Z,0.80
2019-03-15T21:26:06.307Z,0.60
2019-03-15T21:28:35.829Z,0.40
2019-03-15T21:31:07.487Z,0.53
2019-03-15T21:33:37.750Z,0.50
2019-03-15T21:36:08.316Z,0.50
2019-03-15T21:38:48.115Z,0.60
2019-03-15T21:41:09.910Z,0.50
2019-03-15T21:43:39.351Z,0.60
2019-03-15T21:46:10.073Z,0.50
2019-03-15T21:48:40.623Z,0.70
2019-03-15T21:51:10.158Z,0.53
2019-03-15T21:53:39.739Z,0.40
2019-03-15T21:56:10.138Z,0.60
2019-03-15T21:58:41.513Z,0.60
2019-03-15T22:01:11.841Z,0.60
2019-03-15T22:03:41.589Z,0.63
2019-03-15T22:06:11.274Z,0.60
2019-03-15T22:08:41.434Z,0.40
2019-03-15T22:11:21.165Z,0.60
2019-03-15T22:13:49.440Z,0.40
2019-03-15T22:16:19.284Z,0.60
2019-03-15T22:18:48.998Z,0.53
2019-03-15T22:21:18.803Z,0.70
2019-03-15T22:23:49.290Z,0.50
2019-03-15T22:26:18.854Z,0.50
2019-03-15T22:28:48.790Z,0.60
2019-03-15T22:31:17.927Z,0.50
2019-03-15T22:33:47.948Z,0.70
2019-03-15T22:36:18.531Z,0.63
2019-03-15T22:38:50.181Z,0.50
2019-03-15T22:41:22.278Z,0.70
2019-03-15T22:43:54.347Z,0.60
2019-03-15T22:46:25.722Z,0.50
2019-03-15T22:48:57.183Z,0.60
2019-03-15T22:51:28.497Z,0.40
2019-03-15T22:53:59.581Z,0.53
2019-03-15T22:56:33.492Z,0.50
2019-03-15T22:59:03.185Z,0.60
2019-03-15T23:01:32.267Z,0.50
2019-03-15T23:04:01.533Z,0.70
2019-03-15T23:06:31.989Z,1.10
2019-03-15T23:09:01.842Z,0.60
2019-03-15T23:11:32.057Z,0.57
2019-03-15T23:14:01.510Z,0.47
2019-03-15T23:16:31.161Z,1.47
2019-03-15T23:19:01.498Z,0.30
2019-03-15T23:21:31.306Z,0.93
2019-03-15T23:24:02.014Z,0.50
2019-03-15T23:26:31.751Z,0.40
2019-03-15T23:29:01.427Z,0.60
2019-03-15T23:31:42.946Z,0.40
2019-03-15T23:34:02.783Z,0.97
2019-03-15T23:36:32.310Z,0.60
2019-03-15T23:39:03.947Z,0.40
2019-03-15T23:41:33.561Z,0.53
2019-03-15T23:44:02.947Z,0.40
2019-03-15T23:46:33.501Z,0.30
2019-03-15T23:49:02.660Z,0.77
2019-03-15T23:51:32.278Z,0.20
2019-03-15T23:54:03.652Z,0.60
2019-03-15T23:56:33.814Z,0.40
2019-03-15T23:59:05.603Z,0.50
